Time;durP1;ratioP1;P1;durP2;ratioP2;P2;SDS_P1;SDS_P2;PMS_P1;PMS_P2;Temp;Humidity;BMP_temperature;BMP_pressure;BME280_temperature;BME280_humidity;BME280_pressure;Samples;Min_cycle;Max_cycle;Signal;HPM_P1;HPM_P2
2022/02/20 00:01:01;;;;;;;5.57;2.03;;;5.00;99.90;;;;;;464605;256;27455;-75
2022/02/20 00:03:02;;;;;;;3.95;2.20;;;5.00;99.90;;;;;;464596;256;27527;-74
2022/02/20 00:05:04;;;;;;;5.03;2.12;;;5.00;99.90;;;;;;464517;256;27930;-74
2022/02/20 00:07:05;;;;;;;3.67;2.20;;;5.00;99.90;;;;;;464527;256;28078;-75
2022/02/20 00:09:06;;;;;;;6.40;2.12;;;5.00;99.90;;;;;;464574;256;28697;-74
2022/02/20 00:11:07;;;;;;;5.35;1.92;;;4.90;99.90;;;;;;464568;256;27439;-75
2022/02/20 00:13:09;;;;;;;2.95;2.40;;;4.90;99.90;;;;;;464574;256;27507;-75
2022/02/20 00:15:10;;;;;;;2.85;1.98;;;4.90;99.90;;;;;;464567;256;27444;-75
2022/02/20 00:17:11;;;;;;;7.40;1.95;;;4.90;99.90;;;;;;464561;256;27487;-75
2022/02/20 00:19:12;;;;;;;5.28;2.10;;;4.90;99.90;;;;;;464548;256;27476;-75
2022/02/20 00:21:14;;;;;;;6.30;2.05;;;4.90;99.90;;;;;;464590;256;27456;-75
2022/02/20 00:23:18;;;;;;;3.28;2.25;;;4.90;99.90;;;;;;464617;256;27528;-74
2022/02/20 00:25:16;;;;;;;5.78;2.30;;;4.90;99.90;;;;;;464288;256;27440;-75
2022/02/20 00:27:17;;;;;;;2.33;2.12;;;4.80;99.90;;;;;;464590;256;27977;-75
2022/02/20 00:29:19;;;;;;;4.45;1.98;;;4.90;99.90;;;;;;464606;256;27993;-75
2022/02/20 00:31:20;;;;;;;3.60;1.85;;;4.90;99.90;;;;;;464608;256;27444;-74
2022/02/20 00:33:21;;;;;;;4.05;2.17;;;4.90;99.90;;;;;;464588;256;27531;-75
2022/02/20 00:35:23;;;;;;;2.12;2.00;;;4.90;99.90;;;;;;464594;256;27440;-75
2022/02/20 00:37:24;;;;;;;3.58;2.33;;;4.90;99.90;;;;;;464590;256;27484;-74
2022/02/20 00:39:28;;;;;;;2.97;1.75;;;4.90;99.90;;;;;;464613;256;27587;-75
2022/02/20 00:41:26;;;;;;;4.45;2.35;;;4.90;99.90;;;;;;464391;256;27444;-74
2022/02/20 00:43:27;;;;;;;5.72;2.08;;;4.90;99.90;;;;;;464605;256;27500;-75
2022/02/20 00:45:29;;;;;;;4.45;1.90;;;4.90;99.90;;;;;;464620;256;28028;-75
2022/02/20 00:47:30;;;;;;;3.05;2.10;;;4.90;99.90;;;;;;464576;256;27969;-75
2022/02/20 00:49:31;;;;;;;2.47;2.28;;;4.90;99.90;;;;;;464603;256;28083;-75
2022/02/20 00:51:35;;;;;;;9.80;1.90;;;4.90;99.90;;;;;;464626;256;27457;-75
2022/02/20 00:53:34;;;;;;;6.87;2.40;;;4.90;99.90;;;;;;464421;256;27586;-75
2022/02/20 00:55:35;;;;;;;3.08;1.75;;;4.90;99.90;;;;;;464606;256;27448;-75
2022/02/20 00:57:36;;;;;;;2.08;1.80;;;4.90;99.90;;;;;;464587;256;27495;-75
2022/02/20 00:59:38;;;;;;;7.35;2.30;;;4.80;99.90;;;;;;464617;256;27496;-75
2022/02/20 01:01:40;;;;;;;4.40;2.00;;;4.80;99.90;;;;;;464596;256;27500;-74
2022/02/20 01:03:40;;;;;;;6.28;2.33;;;4.80;99.90;;;;;;464505;256;27492;-75
2022/02/20 01:05:42;;;;;;;3.83;1.87;;;4.80;99.90;;;;;;464605;256;27478;-75
2022/02/20 01:07:43;;;;;;;6.75;2.20;;;4.80;99.90;;;;;;464594;256;28050;-75
2022/02/20 01:09:44;;;;;;;2.85;2.00;;;4.80;99.90;;;;;;464601;256;27978;-76
2022/02/20 01:11:45;;;;;;;4.65;2.00;;;4.80;99.90;;;;;;464596;256;27456;-75
2022/02/20 01:13:46;;;;;;;7.37;2.67;;;4.80;99.90;;;;;;464581;256;27496;-75
2022/02/20 01:15:48;;;;;;;6.30;2.20;;;4.80;99.90;;;;;;479381;241;27398;-75
2022/02/20 01:17:49;;;;;;;6.68;2.05;;;4.80;99.90;;;;;;481187;246;27410;-75
2022/02/20 01:19:53;;;;;;;3.45;1.95;;;4.80;99.90;;;;;;481200;246;27503;-75
2022/02/20 01:21:51;;;;;;;3.83;2.30;;;4.90;99.90;;;;;;481041;247;27450;-75
2022/02/20 01:23:53;;;;;;;5.28;2.17;;;4.80;99.90;;;;;;481162;246;27433;-75
2022/02/20 01:25:54;;;;;;;4.12;2.10;;;4.80;99.90;;;;;;481229;246;27435;-74
2022/02/20 01:27:57;;;;;;;3.53;1.80;;;4.80;99.90;;;;;;481194;246;27384;-75
2022/02/20 01:29:56;;;;;;;2.60;1.90;;;4.80;99.90;;;;;;481079;246;28008;-75
2022/02/20 01:31:58;;;;;;;6.28;2.22;;;4.80;99.90;;;;;;481189;246;27865;-75
2022/02/20 01:33:59;;;;;;;7.28;2.65;;;4.80;99.90;;;;;;481159;246;27928;-75
2022/02/20 01:36:00;;;;;;;4.93;2.28;;;4.80;99.90;;;;;;481198;246;27555;-75
2022/02/20 01:38:01;;;;;;;6.87;2.45;;;4.90;99.90;;;;;;481197;246;27430;-75
2022/02/20 01:40:03;;;;;;;4.43;2.00;;;4.90;99.90;;;;;;481198;246;27530;-76
2022/02/20 01:42:04;;;;;;;5.70;2.37;;;4.90;99.90;;;;;;481200;246;27501;-74
2022/02/20 01:46:10;;;;;;;5.32;2.47;;;4.90;99.90;;;;;;482015;239;27406;-75
2022/02/20 01:48:12;;;;;;;8.57;2.50;;;4.90;99.90;;;;;;482260;246;27884;-75
2022/02/20 01:50:15;;;;;;;4.95;2.28;;;4.90;99.90;;;;;;482238;246;27885;-74
2022/02/20 01:52:14;;;;;;;7.32;2.12;;;5.00;99.90;;;;;;482130;246;28935;-75
2022/02/20 01:54:15;;;;;;;6.22;2.25;;;5.00;99.90;;;;;;482240;246;27419;-75
2022/02/20 01:56:17;;;;;;;4.93;2.10;;;5.00;99.90;;;;;;482274;246;27519;-76
2022/02/20 01:58:18;;;;;;;9.52;2.28;;;5.00;99.90;;;;;;482306;246;27407;-75
2022/02/20 02:00:20;;;;;;;3.60;2.10;;;5.00;99.90;;;;;;482297;245;27415;-75
2022/02/20 02:02:20;;;;;;;6.25;1.80;;;5.00;99.90;;;;;;482277;246;27455;-75
2022/02/20 02:04:22;;;;;;;6.30;2.25;;;5.00;99.90;;;;;;482298;246;27430;-74
2022/02/20 02:06:23;;;;;;;5.82;2.20;;;5.00;99.90;;;;;;482295;246;27423;-76
2022/02/20 02:08:24;;;;;;;7.37;2.20;;;5.10;99.90;;;;;;482299;246;27823;-75
2022/02/20 02:10:25;;;;;;;2.50;1.70;;;5.10;99.90;;;;;;482281;246;27994;-75
2022/02/20 02:12:27;;;;;;;7.05;2.28;;;5.10;99.90;;;;;;482303;245;28580;-74
2022/02/20 02:14:28;;;;;;;4.07;2.20;;;5.10;99.90;;;;;;482305;246;27367;-75
2022/02/20 02:16:29;;;;;;;3.42;2.15;;;5.10;99.90;;;;;;482273;246;27410;-75
2022/02/20 02:18:30;;;;;;;3.53;2.10;;;5.10;99.90;;;;;;482290;246;27441;-75
2022/02/20 02:20:32;;;;;;;3.25;1.75;;;5.10;99.90;;;;;;482291;245;27521;-75
2022/02/20 02:22:33;;;;;;;7.28;2.45;;;5.10;99.90;;;;;;482307;246;27884;-76
2022/02/20 02:24:34;;;;;;;3.33;1.98;;;5.10;99.90;;;;;;482334;246;27501;-75
2022/02/20 02:26:35;;;;;;;5.05;1.80;;;5.10;99.90;;;;;;482315;246;27547;-75
2022/02/20 02:28:37;;;;;;;4.12;2.00;;;5.10;99.90;;;;;;482299;246;27806;-75
2022/02/20 02:30:38;;;;;;;8.45;2.40;;;5.20;99.90;;;;;;482289;246;27889;-75
2022/02/20 02:32:39;;;;;;;5.70;1.60;;;5.10;99.90;;;;;;482281;246;27402;-75
2022/02/20 02:34:40;;;;;;;2.70;1.83;;;5.10;99.90;;;;;;482292;245;27459;-75
2022/02/20 02:36:42;;;;;;;4.70;2.25;;;5.20;99.90;;;;;;482301;246;27392;-75
2022/02/20 02:38:43;;;;;;;3.78;1.80;;;5.20;99.90;;;;;;482303;245;27473;-75
2022/02/20 02:40:44;;;;;;;5.20;2.35;;;5.20;99.90;;;;;;482286;246;27478;-75
2022/02/20 02:42:45;;;;;;;2.55;2.00;;;5.20;99.90;;;;;;482315;246;27478;-75
2022/02/20 02:44:47;;;;;;;4.37;2.08;;;5.20;99.90;;;;;;482308;246;27381;-75
2022/02/20 02:46:48;;;;;;;4.15;2.10;;;5.20;99.90;;;;;;482278;246;27945;-75
2022/02/20 02:48:49;;;;;;;7.43;2.10;;;5.20;99.90;;;;;;482306;246;27932;-75
2022/02/20 02:50:50;;;;;;;10.57;2.67;;;5.20;99.90;;;;;;482318;245;27840;-75
2022/02/20 02:52:52;;;;;;;3.45;1.98;;;5.20;99.90;;;;;;482339;246;27501;-75
2022/02/20 02:54:53;;;;;;;3.20;1.90;;;5.20;99.90;;;;;;482340;246;27399;-74
2022/02/20 02:56:54;;;;;;;2.17;1.60;;;5.20;99.90;;;;;;482336;246;27513;-75
2022/02/20 02:58:55;;;;;;;3.75;2.05;;;5.20;99.90;;;;;;482335;246;27419;-74
2022/02/20 03:00:57;;;;;;;3.42;2.12;;;5.30;99.90;;;;;;482346;246;27460;-74
2022/02/20 03:02:58;;;;;;;2.12;1.98;;;5.30;99.90;;;;;;482318;246;27412;-74
2022/02/20 03:05:03;;;;;;;4.37;2.30;;;5.30;99.90;;;;;;482304;245;27830;-74
2022/02/20 03:07:00;;;;;;;4.10;2.22;;;5.30;99.90;;;;;;482073;246;27925;-74
2022/02/20 03:09:02;;;;;;;5.87;2.30;;;5.30;99.90;;;;;;482315;246;27394;-74
2022/02/20 03:11:03;;;;;;;5.28;2.10;;;5.30;99.90;;;;;;482327;246;27454;-74
2022/02/20 03:13:04;;;;;;;3.85;2.10;;;5.30;99.90;;;;;;482314;246;27414;-75
2022/02/20 03:15:07;;;;;;;3.15;1.70;;;5.30;99.90;;;;;;482287;246;27519;-74
2022/02/20 03:17:08;;;;;;;4.15;2.00;;;5.20;99.90;;;;;;482256;246;27422;-74
2022/02/20 03:19:08;;;;;;;5.93;1.85;;;5.30;99.90;;;;;;482282;246;27801;-75
2022/02/20 03:21:09;;;;;;;5.07;2.00;;;5.30;99.90;;;;;;482327;246;27385;-75
2022/02/20 03:23:11;;;;;;;5.60;2.17;;;5.20;99.90;;;;;;482325;246;27870;-75
2022/02/20 03:25:12;;;;;;;7.75;2.15;;;5.30;99.90;;;;;;482321;246;27938;-75
2022/02/20 03:27:14;;;;;;;3.10;1.80;;;5.30;99.90;;;;;;482292;246;28012;-74
2022/02/20 03:29:14;;;;;;;3.83;1.90;;;5.30;99.90;;;;;;482253;246;27428;-74
2022/02/20 03:31:16;;;;;;;2.87;2.03;;;5.30;99.90;;;;;;482310;246;27404;-74
2022/02/20 03:33:17;;;;;;;1.70;1.55;;;5.30;99.90;;;;;;482299;246;27418;-75
2022/02/20 03:35:18;;;;;;;3.78;2.10;;;5.30;99.90;;;;;;482287;246;27467;-74
2022/02/20 03:37:19;;;;;;;11.50;2.53;;;5.30;99.90;;;;;;482296;246;27403;-77
2022/02/20 03:39:21;;;;;;;3.35;2.28;;;5.30;99.90;;;;;;482340;246;27411;-73
2022/02/20 03:41:22;;;;;;;5.60;2.05;;;5.30;99.90;;;;;;482311;246;27914;-74
2022/02/20 03:43:23;;;;;;;5.05;2.05;;;5.30;99.90;;;;;;482303;246;27890;-74
2022/02/20 03:45:24;;;;;;;2.87;1.80;;;5.30;99.90;;;;;;482272;246;27904;-74
2022/02/20 03:47:26;;;;;;;6.50;1.95;;;5.30;99.90;;;;;;482298;246;27408;-74
2022/02/20 03:49:27;;;;;;;3.58;2.33;;;5.30;99.90;;;;;;482329;246;27423;-74
2022/02/20 03:51:28;;;;;;;4.22;2.35;;;5.30;99.90;;;;;;482309;246;27371;-75
2022/02/20 03:53:29;;;;;;;4.43;2.00;;;5.30;99.90;;;;;;482300;246;27538;-75
2022/02/20 03:55:31;;;;;;;2.37;1.90;;;5.30;99.90;;;;;;482282;246;27392;-75
2022/02/20 03:57:32;;;;;;;7.80;3.12;;;5.30;99.90;;;;;;482298;245;27411;-75
2022/02/20 03:59:33;;;;;;;4.07;1.92;;;5.30;99.90;;;;;;482310;246;27423;-75
2022/02/20 04:01:34;;;;;;;6.55;2.15;;;5.30;99.90;;;;;;482321;246;27851;-74
2022/02/20 04:03:36;;;;;;;6.47;2.10;;;5.30;99.90;;;;;;482314;246;27993;-75
2022/02/20 04:05:37;;;;;;;2.30;2.10;;;5.30;99.90;;;;;;482315;246;27373;-75
2022/02/20 04:07:38;;;;;;;6.97;2.50;;;5.30;99.90;;;;;;482300;246;27446;-75
2022/02/20 04:09:39;;;;;;;2.65;1.80;;;5.30;99.90;;;;;;482298;246;27491;-75
2022/02/20 04:11:41;;;;;;;6.68;1.80;;;5.20;99.90;;;;;;482348;246;27444;-75
2022/02/20 04:13:42;;;;;;;2.62;1.85;;;5.30;99.90;;;;;;482304;246;27411;-77
2022/02/20 04:15:43;;;;;;;2.20;1.70;;;5.20;99.90;;;;;;482337;246;27552;-74
2022/02/20 04:17:44;;;;;;;7.53;2.35;;;5.30;99.90;;;;;;482326;246;27402;-74
2022/02/20 04:19:46;;;;;;;3.75;1.42;;;5.20;99.90;;;;;;482332;246;28290;-73
2022/02/20 04:21:47;;;;;;;2.50;1.80;;;5.20;99.90;;;;;;482354;246;27830;-75
2022/02/20 04:23:48;;;;;;;2.92;2.00;;;5.20;99.90;;;;;;482324;245;27962;-73
2022/02/20 04:25:49;;;;;;;3.08;2.03;;;5.20;99.90;;;;;;482321;246;27447;-74
2022/02/20 04:27:51;;;;;;;6.10;2.03;;;5.20;99.90;;;;;;482277;246;27494;-76
2022/02/20 04:29:52;;;;;;;7.15;1.90;;;5.20;99.90;;;;;;482287;246;27478;-74
2022/02/20 04:31:53;;;;;;;3.80;2.10;;;5.20;99.90;;;;;;482328;246;27391;-75
2022/02/20 04:33:57;;;;;;;1.75;1.50;;;5.20;99.90;;;;;;482311;245;27442;-77
2022/02/20 04:35:56;;;;;;;5.72;1.90;;;5.20;99.90;;;;;;482184;246;27538;-73
2022/02/20 04:37:57;;;;;;;2.35;2.03;;;5.20;99.90;;;;;;482291;246;27897;-73
2022/02/20 04:40:00;;;;;;;3.33;1.60;;;5.20;99.90;;;;;;482293;246;27954;-73
2022/02/20 04:42:00;;;;;;;2.70;1.80;;;5.20;99.90;;;;;;482221;246;27912;-73
2022/02/20 04:44:01;;;;;;;3.08;1.75;;;5.20;99.90;;;;;;482298;246;27419;-74
2022/02/20 04:46:02;;;;;;;3.10;1.60;;;5.20;99.90;;;;;;482304;245;27453;-73
2022/02/20 04:48:03;;;;;;;5.35;2.03;;;5.20;99.90;;;;;;482315;246;27411;-74
2022/02/20 04:50:05;;;;;;;4.93;2.10;;;5.20;99.90;;;;;;482312;246;27838;-73
2022/02/20 04:52:06;;;;;;;6.18;2.08;;;5.20;99.90;;;;;;482277;246;27502;-74
2022/02/20 04:54:07;;;;;;;3.40;1.98;;;5.20;99.90;;;;;;482315;246;27432;-73
2022/02/20 04:56:08;;;;;;;3.35;1.90;;;5.20;99.90;;;;;;482273;246;27376;-76
2022/02/20 04:58:09;;;;;;;3.70;2.28;;;5.20;99.90;;;;;;482330;246;27908;-74
2022/02/20 05:00:11;;;;;;;3.92;1.87;;;5.20;99.90;;;;;;482305;246;27965;-73
2022/02/20 05:02:12;;;;;;;6.30;2.03;;;5.20;99.90;;;;;;482320;246;27509;-73
2022/02/20 05:04:13;;;;;;;2.65;2.05;;;5.20;99.90;;;;;;482313;246;27407;-73
2022/02/20 05:06:15;;;;;;;2.00;1.77;;;5.20;99.90;;;;;;482276;246;27468;-76
2022/02/20 05:08:16;;;;;;;2.53;2.08;;;5.20;99.90;;;;;;482309;246;27440;-74
2022/02/20 05:10:17;;;;;;;2.30;2.10;;;5.20;99.90;;;;;;482333;246;27414;-74
2022/02/20 05:12:18;;;;;;;7.95;2.60;;;5.20;99.90;;;;;;482327;246;27376;-73
2022/02/20 05:14:20;;;;;;;4.07;2.08;;;5.20;99.90;;;;;;482313;246;27899;-73
2022/02/20 05:16:21;;;;;;;4.87;2.10;;;5.20;99.90;;;;;;482299;246;28723;-73
2022/02/20 05:18:22;;;;;;;5.18;2.05;;;5.20;99.90;;;;;;482328;246;27841;-73
2022/02/20 05:20:23;;;;;;;2.12;1.95;;;5.20;99.90;;;;;;482326;246;27403;-74
2022/02/20 05:22:25;;;;;;;4.65;1.95;;;5.20;99.90;;;;;;482319;246;27455;-74
2022/02/20 05:24:26;;;;;;;3.65;1.85;;;5.20;99.90;;;;;;482298;246;27503;-73
2022/02/20 05:26:27;;;;;;;4.78;1.85;;;5.10;99.90;;;;;;482284;246;27372;-73
2022/02/20 05:28:28;;;;;;;4.15;2.37;;;5.20;99.90;;;;;;482327;245;27371;-73
2022/02/20 05:30:30;;;;;;;5.12;2.30;;;5.20;99.90;;;;;;482315;245;27533;-73
2022/02/20 05:32:32;;;;;;;4.70;2.10;;;5.20;99.90;;;;;;482287;246;27864;-73
2022/02/20 05:34:32;;;;;;;1.87;1.77;;;5.20;99.90;;;;;;484050;239;27806;-74
2022/02/20 05:36:34;;;;;;;4.40;1.85;;;5.20;99.90;;;;;;477633;249;29664;-74
2022/02/20 05:38:35;;;;;;;3.20;2.10;;;5.20;99.90;;;;;;480079;248;27453;-74
2022/02/20 05:40:36;;;;;;;2.40;1.90;;;5.20;99.90;;;;;;479173;246;27577;-74
2022/02/20 05:42:37;;;;;;;3.25;2.00;;;5.20;99.90;;;;;;478168;249;27401;-74
2022/02/20 05:44:38;;;;;;;3.00;1.83;;;5.20;99.90;;;;;;480086;248;27528;-74
2022/02/20 05:46:40;;;;;;;4.75;2.00;;;5.20;99.90;;;;;;479184;246;27535;-74
2022/02/20 05:48:41;;;;;;;7.70;2.20;;;5.20;99.90;;;;;;478221;248;27430;-73
2022/02/20 05:50:42;;;;;;;2.58;1.90;;;5.20;99.90;;;;;;480071;248;27454;-74
2022/02/20 05:52:44;;;;;;;5.43;2.25;;;5.20;99.90;;;;;;479160;248;27950;-74
2022/02/20 05:54:45;;;;;;;5.60;2.20;;;5.20;99.90;;;;;;480088;248;27923;-74
2022/02/20 05:56:46;;;;;;;2.58;2.37;;;5.20;99.90;;;;;;479168;246;27547;-75
2022/02/20 05:58:47;;;;;;;2.53;2.25;;;5.20;99.90;;;;;;478207;249;27423;-73
2022/02/20 06:00:48;;;;;;;3.85;2.08;;;5.20;99.90;;;;;;480069;248;27442;-74
2022/02/20 06:02:50;;;;;;;3.97;2.40;;;5.20;99.90;;;;;;479209;246;27500;-74
2022/02/20 06:04:51;;;;;;;2.83;2.30;;;5.20;99.90;;;;;;478252;248;27421;-74
2022/02/20 06:06:52;;;;;;;5.00;2.90;;;5.20;99.90;;;;;;480049;248;27559;-74
2022/02/20 06:08:53;;;;;;;6.87;2.70;;;5.20;99.90;;;;;;479199;246;27953;-73
2022/02/20 06:10:55;;;;;;;3.37;2.75;;;5.20;99.90;;;;;;478243;248;28477;-76
2022/02/20 06:12:56;;;;;;;2.97;2.40;;;5.20;99.90;;;;;;480138;248;27964;-75
2022/02/20 06:14:57;;;;;;;5.75;2.67;;;5.20;99.90;;;;;;479230;246;27570;-74
2022/02/20 06:16:59;;;;;;;4.35;2.90;;;5.20;99.90;;;;;;478241;249;27535;-74
2022/02/20 06:19:00;;;;;;;7.43;2.70;;;5.20;99.90;;;;;;480116;248;27414;-73
2022/02/20 06:21:01;;;;;;;4.57;2.90;;;5.20;99.90;;;;;;479228;246;27616;-73
2022/02/20 06:23:02;;;;;;;2.30;2.10;;;5.20;99.90;;;;;;478226;248;27511;-73
2022/02/20 06:25:03;;;;;;;6.57;2.83;;;5.20;99.90;;;;;;480090;248;27539;-73
2022/02/20 06:27:05;;;;;;;2.95;2.67;;;5.20;99.90;;;;;;479240;246;28170;-74
2022/02/20 06:29:06;;;;;;;4.12;2.40;;;5.20;99.90;;;;;;478273;248;27944;-74
2022/02/20 06:31:07;;;;;;;4.00;2.70;;;5.20;99.90;;;;;;480131;248;27440;-76
2022/02/20 06:33:08;;;;;;;3.65;2.20;;;5.20;99.90;;;;;;479190;248;27508;-73
2022/02/20 06:35:10;;;;;;;3.83;2.40;;;5.20;99.90;;;;;;478255;248;27541;-73
2022/02/20 06:37:11;;;;;;;5.80;2.80;;;5.20;99.90;;;;;;480134;248;27445;-76
2022/02/20 06:39:12;;;;;;;7.60;2.70;;;5.20;99.90;;;;;;479225;246;27498;-73
2022/02/20 06:41:14;;;;;;;5.15;2.70;;;5.20;99.90;;;;;;478253;248;27532;-76
2022/02/20 06:43:15;;;;;;;8.93;2.60;;;5.20;99.90;;;;;;480131;248;27992;-73
2022/02/20 06:45:17;;;;;;;3.17;2.40;;;5.20;99.90;;;;;;480148;248;27949;-74
2022/02/20 06:47:17;;;;;;;4.10;2.37;;;5.20;99.90;;;;;;479187;246;27985;-73
2022/02/20 06:49:19;;;;;;;5.55;3.05;;;5.20;99.90;;;;;;478259;248;27389;-74
2022/02/20 06:51:20;;;;;;;2.97;2.37;;;5.20;99.90;;;;;;480100;248;27453;-74
2022/02/20 06:53:21;;;;;;;5.72;2.70;;;5.30;99.90;;;;;;479193;246;27523;-73
2022/02/20 06:55:22;;;;;;;5.80;2.87;;;5.30;99.90;;;;;;480087;248;27397;-74
2022/02/20 06:57:25;;;;;;;5.30;2.83;;;5.30;99.90;;;;;;479175;246;27544;-76
2022/02/20 06:59:25;;;;;;;4.85;2.55;;;5.30;99.90;;;;;;479947;248;27504;-76
2022/02/20 07:01:26;;;;;;;6.43;2.80;;;5.30;99.90;;;;;;479206;246;28057;-75
2022/02/20 07:03:27;;;;;;;7.87;2.40;;;5.30;99.90;;;;;;478231;248;27947;-75
2022/02/20 07:05:29;;;;;;;2.85;2.58;;;5.30;99.90;;;;;;480063;248;27932;-75
2022/02/20 07:07:30;;;;;;;9.25;3.00;;;5.30;99.90;;;;;;479177;246;27598;-74
2022/02/20 07:09:31;;;;;;;5.40;2.65;;;5.30;99.90;;;;;;480112;248;27449;-73
2022/02/20 07:11:32;;;;;;;2.85;2.30;;;5.30;99.90;;;;;;479186;246;27511;-75
2022/02/20 07:13:34;;;;;;;5.47;2.60;;;5.30;99.90;;;;;;478248;248;27440;-73
2022/02/20 07:15:35;;;;;;;4.70;2.58;;;5.40;99.90;;;;;;497067;232;27450;-74
2022/02/20 07:17:36;;;;;;;6.05;2.60;;;5.30;99.90;;;;;;495753;240;27409;-76
2022/02/20 07:19:37;;;;;;;6.37;2.70;;;5.40;99.90;;;;;;506166;235;28933;-74
2022/02/20 07:21:39;;;;;;;11.02;2.50;;;5.40;99.90;;;;;;506218;235;27954;-76
2022/02/20 07:23:40;;;;;;;4.68;2.50;;;5.40;99.90;;;;;;495762;238;27479;-73
2022/02/20 07:25:41;;;;;;;3.40;2.20;;;5.40;99.90;;;;;;506155;235;27440;-73
2022/02/20 07:27:42;;;;;;;2.50;2.30;;;5.40;99.90;;;;;;506180;235;27399;-73
2022/02/20 07:29:44;;;;;;;2.83;1.83;;;5.40;99.90;;;;;;495718;240;27488;-74
2022/02/20 07:31:45;;;;;;;2.70;2.30;;;5.40;99.90;;;;;;506176;235;27420;-73
2022/02/20 07:33:46;;;;;;;2.55;2.35;;;5.40;99.90;;;;;;506165;235;27479;-74
2022/02/20 07:35:47;;;;;;;2.75;2.28;;;5.40;99.90;;;;;;506180;235;27356;-76
2022/02/20 07:37:49;;;;;;;5.93;2.35;;;5.40;99.90;;;;;;506174;235;27955;-73
2022/02/20 07:39:50;;;;;;;3.62;2.22;;;5.40;99.90;;;;;;495678;240;27974;-76
2022/02/20 07:41:51;;;;;;;5.50;2.28;;;5.30;99.90;;;;;;506175;235;27556;-76
2022/02/20 07:43:52;;;;;;;5.32;2.62;;;5.30;99.90;;;;;;495717;240;27416;-74
2022/02/20 07:45:54;;;;;;;4.20;2.35;;;5.30;99.90;;;;;;506154;235;27574;-73
2022/02/20 07:47:59;;;;;;;3.58;2.28;;;5.40;99.90;;;;;;495699;240;27515;-73
2022/02/20 07:49:59;;;;;;;2.10;2.00;;;5.30;99.90;;;;;;506071;235;27479;-74
2022/02/20 07:52:00;;;;;;;6.03;2.72;;;5.40;99.90;;;;;;495742;240;27491;-75
2022/02/20 07:54:01;;;;;;;5.05;2.37;;;5.40;99.90;;;;;;506268;235;27361;-75
2022/02/20 07:56:03;;;;;;;5.62;2.42;;;5.40;99.90;;;;;;506248;235;27484;-75
2022/02/20 07:58:04;;;;;;;4.97;2.60;;;5.40;99.90;;;;;;495736;240;27877;-74
2022/02/20 08:00:05;;;;;;;5.00;2.28;;;5.40;99.90;;;;;;506145;235;28001;-74
2022/02/20 08:02:06;;;;;;;5.25;3.05;;;5.50;99.90;;;;;;495709;240;27826;-74
2022/02/20 08:04:08;;;;;;;3.37;2.65;;;5.50;99.90;;;;;;506193;235;27376;-76
2022/02/20 08:06:09;;;;;;;8.90;2.20;;;5.50;99.90;;;;;;506178;234;27487;-74
2022/02/20 08:08:11;;;;;;;3.75;2.10;;;5.50;99.90;;;;;;495724;240;27459;-73
2022/02/20 08:10:12;;;;;;;3.75;2.22;;;5.50;99.90;;;;;;505970;235;27395;-73
2022/02/20 08:12:13;;;;;;;3.05;2.00;;;5.50;99.90;;;;;;495731;240;27370;-76
2022/02/20 08:14:14;;;;;;;3.30;2.10;;;5.50;99.90;;;;;;506123;235;27918;-73
2022/02/20 08:16:15;;;;;;;3.65;2.10;;;5.50;99.90;;;;;;495669;240;28001;-73
2022/02/20 08:18:16;;;;;;;6.62;2.47;;;5.60;99.90;;;;;;506078;235;27823;-73
2022/02/20 08:20:18;;;;;;;3.30;2.00;;;5.50;99.90;;;;;;495736;240;27421;-73
2022/02/20 08:22:19;;;;;;;4.82;2.10;;;5.50;99.90;;;;;;506133;235;27554;-74
2022/02/20 08:24:20;;;;;;;2.10;1.67;;;5.50;99.90;;;;;;506165;235;27431;-73
2022/02/20 08:26:22;;;;;;;2.10;1.80;;;5.50;99.90;;;;;;495731;240;27781;-74
2022/02/20 08:28:23;;;;;;;3.37;1.85;;;5.50;99.90;;;;;;506166;235;27456;-74
2022/02/20 08:30:24;;;;;;;2.85;2.15;;;5.50;99.90;;;;;;495713;240;27903;-76
2022/02/20 08:32:25;;;;;;;5.03;2.37;;;5.50;99.90;;;;;;506122;235;27953;-76
2022/02/20 08:34:27;;;;;;;3.03;2.40;;;5.50;99.90;;;;;;495726;240;27412;-76
2022/02/20 08:36:28;;;;;;;4.35;2.20;;;5.40;99.90;;;;;;506161;235;27380;-76
2022/02/20 08:38:29;;;;;;;2.05;1.80;;;5.50;99.90;;;;;;506152;235;27432;-75
2022/02/20 08:40:30;;;;;;;4.00;2.30;;;5.50;99.90;;;;;;495785;240;27439;-76
2022/02/20 08:42:32;;;;;;;2.40;2.17;;;5.50;99.90;;;;;;506173;235;27522;-75
2022/02/20 08:44:34;;;;;;;4.55;2.10;;;5.50;99.90;;;;;;506178;235;27476;-76
2022/02/20 08:46:34;;;;;;;3.75;2.28;;;5.50;99.90;;;;;;495645;240;27960;-74
2022/02/20 08:48:36;;;;;;;2.80;2.00;;;5.50;99.90;;;;;;506160;235;27913;-73
2022/02/20 08:50:38;;;;;;;6.18;2.08;;;5.50;99.90;;;;;;495745;240;27548;-75
2022/02/20 08:52:38;;;;;;;2.85;1.98;;;5.50;99.90;;;;;;506025;235;27538;-76
2022/02/20 08:54:39;;;;;;;2.75;1.77;;;5.50;99.90;;;;;;490733;240;27392;-73
2022/02/20 08:56:40;;;;;;;3.15;1.90;;;5.50;99.90;;;;;;476960;249;27505;-75
2022/02/20 08:58:42;;;;;;;1.85;1.75;;;5.50;99.90;;;;;;474559;250;27534;-73
2022/02/20 09:00:45;;;;;;;2.78;1.75;;;5.50;99.90;;;;;;469816;253;27973;-74
2022/02/20 09:02:44;;;;;;;1.90;1.80;;;5.60;99.90;;;;;;468403;254;27994;-74
2022/02/20 09:04:46;;;;;;;5.15;1.70;;;5.50;99.90;;;;;;473062;236;27588;-74
2022/02/20 09:06:47;;;;;;;4.05;1.80;;;5.50;99.90;;;;;;482382;246;27427;-73
2022/02/20 09:08:49;;;;;;;2.50;1.90;;;5.50;99.90;;;;;;483383;245;27516;-73
2022/02/20 09:10:49;;;;;;;1.98;1.80;;;5.50;99.90;;;;;;483384;245;27525;-73
2022/02/20 09:12:50;;;;;;;3.17;1.73;;;5.60;99.90;;;;;;483398;245;27493;-76
2022/02/20 09:14:52;;;;;;;1.60;1.50;;;5.60;99.90;;;;;;483367;245;27561;-74
2022/02/20 09:16:53;;;;;;;2.20;1.70;;;5.60;99.90;;;;;;483426;245;28011;-73
2022/02/20 09:18:56;;;;;;;1.90;1.65;;;5.60;99.90;;;;;;483415;245;28070;-74
2022/02/20 09:20:55;;;;;;;3.80;1.98;;;5.60;99.90;;;;;;483334;246;27558;-77
2022/02/20 09:22:57;;;;;;;1.98;1.80;;;5.60;99.90;;;;;;483413;244;27567;-74
2022/02/20 09:24:58;;;;;;;1.87;1.67;;;5.70;99.90;;;;;;481185;241;27536;-74
2022/02/20 09:26:59;;;;;;;3.40;1.80;;;5.60;99.90;;;;;;474712;249;28032;-73
2022/02/20 09:29:01;;;;;;;4.07;2.10;;;5.60;99.90;;;;;;474710;250;29038;-75
2022/02/20 09:31:03;;;;;;;5.65;2.05;;;5.70;99.90;;;;;;474708;250;27568;-75
2022/02/20 09:33:03;;;;;;;2.47;2.12;;;5.60;99.90;;;;;;474665;250;27523;-76
2022/02/20 09:35:04;;;;;;;3.55;1.92;;;5.60;99.90;;;;;;474713;250;27512;-74
2022/02/20 09:37:06;;;;;;;3.50;2.30;;;5.60;99.90;;;;;;474696;250;27576;-76
2022/02/20 09:39:07;;;;;;;3.87;2.22;;;5.60;99.90;;;;;;474736;250;27521;-73
2022/02/20 09:41:08;;;;;;;4.72;2.70;;;5.60;99.90;;;;;;474730;247;27536;-74
2022/02/20 09:43:09;;;;;;;3.35;1.75;;;5.60;99.90;;;;;;474686;250;28089;-76
2022/02/20 09:45:11;;;;;;;2.40;1.90;;;5.60;99.90;;;;;;474727;250;27942;-74
2022/02/20 09:47:12;;;;;;;2.15;2.00;;;5.60;99.90;;;;;;474720;250;27513;-74
2022/02/20 09:49:13;;;;;;;3.40;1.83;;;5.70;99.90;;;;;;474724;250;27433;-74
2022/02/20 09:51:14;;;;;;;1.80;1.65;;;5.70;99.90;;;;;;474727;250;27600;-74
2022/02/20 09:53:16;;;;;;;2.22;2.03;;;5.70;99.90;;;;;;474730;250;27429;-73
2022/02/20 09:55:17;;;;;;;4.72;2.00;;;5.70;99.90;;;;;;474740;250;27492;-74
2022/02/20 09:57:18;;;;;;;3.30;2.10;;;5.70;99.90;;;;;;474754;250;28783;-74
2022/02/20 09:59:19;;;;;;;3.08;1.85;;;5.80;99.90;;;;;;474735;250;27929;-74
2022/02/20 10:01:21;;;;;;;4.50;1.90;;;5.90;99.90;;;;;;474751;250;27465;-74
2022/02/20 10:03:22;;;;;;;2.97;1.85;;;5.90;99.90;;;;;;474682;250;27423;-74
2022/02/20 10:05:23;;;;;;;3.10;1.90;;;6.00;99.90;;;;;;474715;250;27469;-73
2022/02/20 10:07:25;;;;;;;3.62;2.08;;;6.10;99.90;;;;;;474720;250;27560;-74
2022/02/20 10:09:26;;;;;;;2.12;1.70;;;6.10;99.90;;;;;;474729;250;27940;-74
2022/02/20 10:11:27;;;;;;;2.72;1.77;;;6.20;99.90;;;;;;474754;250;27963;-74
2022/02/20 10:13:28;;;;;;;1.87;1.60;;;6.20;99.90;;;;;;474731;250;27414;-73
2022/02/20 10:15:30;;;;;;;3.30;1.95;;;6.20;99.90;;;;;;474716;250;27465;-73
2022/02/20 10:17:31;;;;;;;5.20;2.00;;;6.20;99.90;;;;;;474704;250;27425;-74
2022/02/20 10:19:32;;;;;;;3.17;1.90;;;6.20;99.90;;;;;;474724;250;27537;-73
2022/02/20 10:21:33;;;;;;;4.40;1.87;;;6.20;99.90;;;;;;474737;250;27540;-75
2022/02/20 10:23:35;;;;;;;2.92;2.12;;;6.30;99.90;;;;;;474714;249;27964;-73
2022/02/20 10:25:36;;;;;;;2.50;1.40;;;6.30;99.90;;;;;;474676;250;27489;-73
2022/02/20 10:27:37;;;;;;;2.90;1.80;;;6.20;99.90;;;;;;474708;250;28882;-76
2022/02/20 10:29:38;;;;;;;1.60;1.50;;;6.20;99.90;;;;;;474731;250;27656;-75
2022/02/20 10:31:40;;;;;;;7.07;2.17;;;6.20;99.90;;;;;;474725;250;28901;-74
2022/02/20 10:33:41;;;;;;;2.58;1.65;;;6.20;99.90;;;;;;474694;250;27434;-76
2022/02/20 10:35:42;;;;;;;1.77;1.67;;;6.20;99.90;;;;;;474708;250;27469;-74
2022/02/20 10:37:43;;;;;;;2.13;1.70;;;6.20;99.90;;;;;;474715;250;28099;-79
2022/02/20 10:39:46;;;;;;;2.10;1.52;;;6.10;99.90;;;;;;474708;250;27728;-76
2022/02/20 10:41:46;;;;;;;2.10;1.50;;;6.20;99.90;;;;;;474663;250;28064;-74